Track Андреев Григорий

Time Latitude Longitude Accuracy (66% radius in meters) Altitude (meters) Speed (km/hour) Bearing (degrees) Battery (%) GPS flag
19:21:43 59.871128 29.858540 192 56.5 0 0 34 1 delete
13:55:52 59.876456 29.925478 96 43.7 0 0 2 1 delete
13:55:40 59.876455 29.925478 96 43.7 0 0 2 1 delete
13:55:26 59.876456 29.925479 8 43.7 0 0 2 1 delete
13:55:15 59.876459 29.925482 6 43.7 0 0 2 1 delete
13:55:03 59.876452 29.925577 8 42 0 0 2 1 delete
13:55:00 59.876458 29.925503 8 41.7 2 28.700000762939 2 1 delete
13:54:55 59.876434 29.925318 12 40.4 2.5 28.200000762939 2 1 delete
13:54:52 59.876388 29.925145 8 37.2 2.2999999523163 9.8000001907349 2 1 delete
13:54:50 59.876345 29.925111 8 35.3 2.4000000953674 14.800000190735 2 1 delete
13:54:48 59.876298 29.925077 6 34.6 2.2000000476837 16.10000038147 2 1 delete
13:54:42 59.876201 29.924958 8 34.9 2.7999999523163 32.299999237061 2 1 delete
13:54:38 59.876102 29.924905 6 36.2 1.5 4.0999999046326 2 1 delete
13:54:34 59.875999 29.924872 8 38.4 1.7999999523163 18.299999237061 2 1 delete
13:54:29 59.875896 29.924790 8 37.3 1.2999999523163 44.900001525879 2 1 delete
13:54:27 59.875872 29.924747 6 36.2 1.2000000476837 11.300000190735 2 1 delete
13:54:22 59.875809 29.924710 6 31.2 1.7999999523163 18.89999961853 2 1 delete
13:54:18 59.875714 29.924668 6 27.8 1.3999999761581 30.299999237061 2 1 delete
13:54:15 59.875660 29.924600 6 28.4 0.89999997615814 26.39999961853 2 1 delete
13:54:12 59.875623 29.924543 6 36.2 2.2000000476837 26.5 2 1 delete
13:54:09 59.875539 29.924445 8 35 1.6000000238419 15.199999809265 2 1 delete
13:54:05 59.875459 29.924342 8 33.9 1.7999999523163 15.699999809265 2 1 delete
13:54:03 59.875414 29.924368 8 34.3 1.3999999761581 17.60000038147 2 1 delete
13:54:00 59.875366 29.924289 8 35.1 1.8999999761581 18.60000038147 2 1 delete
13:53:56 59.875272 29.924217 6 33.7 3 19.5 2 1 delete
13:53:52 59.875167 29.924111 4 31.3 2.0999999046326 14.60000038147 2 1 delete
13:53:51 59.875131 29.924081 6 28.7 1.1000000238419 12.199999809265 2 1 delete
13:53:45 59.875069 29.923986 6 29.3 1.7999999523163 18.700000762939 2 1 delete
13:53:41 59.874982 29.923863 6 30.9 1.2999999523163 337.60000610352 2 1 delete
13:53:39 59.874925 29.923881 6 30.4 1 311.89999389648 2 1 delete
13:53:37 59.874883 29.923915 4 31.3 1.2999999523163 286.89999389648 2 1 delete
13:53:29 59.874803 29.924063 8 34.1 0.89999997615814 283 2 1 delete
13:53:27 59.874778 29.924115 12 35.8 1 241.60000610352 2 1 delete
13:53:21 59.874757 29.924228 6 44.9 0.5 56.200000762939 2 1 delete
13:53:15 59.874741 29.924425 12 50.9 0.60000002384186 56.200000762939 2 1 delete
13:53:07 59.874712 29.924385 8 46.6 3.9000000953674 56.299999237061 2 1 delete
13:53:04 59.874662 29.924188 8 45.3 2.7000000476837 33.5 2 1 delete
13:53:02 59.874604 29.924043 12 42.7 1.6000000238419 349.79998779297 2 1 delete
13:53:01 59.874586 29.924056 8 42.6 1.5 357.89999389648 2 1 delete
13:52:55 59.874495 29.924009 6 44.2 2.4000000953674 27.39999961853 2 1 delete
13:52:50 59.874398 29.923940 8 45.6 2.5999999046326 25.39999961853 2 1 delete
13:52:46 59.874300 29.923899 8 42.5 3.0999999046326 42.400001525879 2 1 delete
13:52:42 59.874228 29.923733 6 42.1 3.4000000953674 29.10000038147 2 1 delete
13:52:39 59.874153 29.923660 6 40.7 2.5 22.10000038147 2 1 delete
13:52:38 59.874130 29.923655 6 40.7 2.0999999046326 22.200000762939 2 1 delete
13:52:33 59.874037 29.923720 12 42.1 4.5999999046326 48.400001525879 2 1 delete
13:52:30 59.873963 29.923514 6 40.6 3.7000000476837 33 2 1 delete
13:52:27 59.873879 29.923428 4 39.4 2.7000000476837 23 2 1 delete
13:52:26 59.873855 29.923402 4 39.2 2.7999999523163 11.39999961853 2 1 delete
13:52:18 59.873716 29.923401 4 42.1 2.9000000953674 50.200000762939 2 1 delete